Bethel, Maine
Current Conditions -  °F | °C
As of 7:52 PM on Tuesday 21 Oct 2014 (Local Time) from KBML Reporting Station
Moderate Rain Moderate Rain  
Wind Chill: 41°   Ceiling: 1200
Heat Index: 45°   Visibility: 7mi
Dew Point: 43°   Wind: 8mph
Humidity: 93%   Direction: 360°N
Pressure: 30.07"   Gusts: NA
Location:  44.4°N, 70.79°W
Report Text: KBML 212352Z AUTO 36007KT 7SM RA OVC012 07/06 A3007 RMK AO2 RAB2253 SLP192 P0003 60011 T00720061 10083 20072 51013
Loading
Personal Weather Stations






























Interactive Weather Map
Tropical Storm Tracking
New forecast layout! Learn more

10-Day Weather Forecast

Advertisements
Track Severe Weather on mobile